Time;durP1;ratioP1;P1;durP2;ratioP2;P2;SDS_P1;SDS_P2;PMS_P1;PMS_P2;Temp;Humidity;BMP_temperature;BMP_pressure;BME280_temperature;BME280_humidity;BME280_pressure;Samples;Min_cycle;Max_cycle;Signal;HPM_P1;HPM_P2
2022/11/20 00:02:24;;;;;;;0.00;0.00;;;4.50;99.90;;;;;;5055256;28;20239;-67
2022/11/20 00:04:50;;;;;;;0.10;0.10;;;4.50;99.90;;;;;;5055033;28;20216;-69
2022/11/20 00:07:15;;;;;;;0.13;0.13;;;4.60;99.90;;;;;;5055032;28;20204;-68
2022/11/20 00:09:41;;;;;;;0.00;0.00;;;4.60;99.90;;;;;;5055110;28;20204;-68
2022/11/20 00:12:06;;;;;;;0.08;0.08;;;4.60;99.90;;;;;;5054333;28;20562;-69
2022/11/20 00:14:32;;;;;;;0.05;0.05;;;4.60;99.90;;;;;;5054679;28;20193;-68
2022/11/20 00:16:58;;;;;;;0.35;0.35;;;4.60;99.90;;;;;;5054817;28;20607;-68
2022/11/20 00:19:23;;;;;;;0.00;0.00;;;4.60;99.90;;;;;;5054393;28;20186;-68
2022/11/20 00:21:51;;;;;;;0.10;0.10;;;4.60;99.90;;;;;;5054414;28;20257;-69
2022/11/20 00:24:16;;;;;;;0.25;0.25;;;4.60;99.90;;;;;;5053809;28;20263;-68
2022/11/20 00:26:42;;;;;;;0.00;0.00;;;4.60;99.90;;;;;;5054240;28;20178;-68
2022/11/20 00:29:10;;;;;;;0.00;0.00;;;4.60;99.90;;;;;;5054612;28;20181;-68
2022/11/20 00:31:35;;;;;;;0.13;0.10;;;4.60;99.90;;;;;;5053450;28;20174;-69
2022/11/20 00:34:01;;;;;;;0.00;0.00;;;4.60;99.90;;;;;;5054442;28;20181;-69
2022/11/20 00:36:28;;;;;;;0.00;0.00;;;4.60;99.90;;;;;;5054548;28;20170;-69
2022/11/20 00:38:56;;;;;;;0.10;0.10;;;4.70;99.90;;;;;;5055609;28;20219;-69
2022/11/20 00:41:23;;;;;;;0.00;0.00;;;4.70;99.90;;;;;;5054584;28;20173;-68
2022/11/20 00:43:48;;;;;;;0.00;0.00;;;4.70;99.90;;;;;;5054348;28;20217;-68
2022/11/20 00:46:17;;;;;;;0.00;0.00;;;4.70;99.90;;;;;;5054268;28;20170;-68
2022/11/20 00:48:44;;;;;;;0.22;0.22;;;4.70;99.90;;;;;;5054316;28;20177;-69
2022/11/20 00:51:11;;;;;;;0.00;0.00;;;4.70;99.90;;;;;;5054282;28;20177;-69
2022/11/20 00:53:37;;;;;;;0.00;0.00;;;4.80;99.90;;;;;;5054344;28;20185;-69
2022/11/20 00:56:09;;;;;;;0.30;0.13;;;4.70;99.90;;;;;;5053537;28;20173;-69
2022/11/20 00:58:37;;;;;;;0.00;0.00;;;4.70;99.90;;;;;;5054121;28;20174;-70
2022/11/20 01:01:07;;;;;;;0.03;0.03;;;4.70;99.90;;;;;;5054239;28;20212;-71
2022/11/20 01:03:42;;;;;;;0.17;0.17;;;4.70;99.90;;;;;;5052735;28;20663;-70
2022/11/20 01:06:12;;;;;;;0.20;0.20;;;4.70;99.90;;;;;;5053912;28;20256;-70
2022/11/20 01:08:38;;;;;;;0.10;0.10;;;4.80;99.90;;;;;;5053982;28;20652;-70
2022/11/20 01:11:10;;;;;;;0.40;0.40;;;4.80;99.90;;;;;;5052556;28;20217;-70
2022/11/20 01:13:38;;;;;;;0.95;0.90;;;4.80;99.90;;;;;;5053808;28;20312;-70
2022/11/20 01:16:16;;;;;;;0.00;0.00;;;4.80;99.90;;;;;;5053718;28;20555;-70
2022/11/20 01:18:44;;;;;;;0.47;0.30;;;4.80;99.90;;;;;;5053898;28;20509;-70
2022/11/20 01:21:16;;;;;;;0.43;0.20;;;4.80;99.90;;;;;;5053625;28;20257;-70
2022/11/20 01:23:43;;;;;;;0.00;0.00;;;4.80;99.90;;;;;;5053640;28;20193;-70
2022/11/20 01:26:14;;;;;;;0.08;0.08;;;4.80;99.90;;;;;;5053509;28;20556;-70
2022/11/20 01:28:41;;;;;;;0.10;0.10;;;4.80;99.90;;;;;;5053392;28;20682;-70
2022/11/20 01:31:22;;;;;;;0.10;0.10;;;4.80;99.90;;;;;;5053371;28;20188;-70
2022/11/20 01:33:50;;;;;;;0.00;0.00;;;4.80;99.90;;;;;;5053344;28;20223;-70
2022/11/20 01:36:16;;;;;;;0.00;0.00;;;4.80;99.90;;;;;;5052986;28;20636;-70
2022/11/20 01:38:43;;;;;;;0.00;0.00;;;4.90;99.90;;;;;;5053348;28;20526;-70
2022/11/20 01:41:09;;;;;;;0.00;0.00;;;4.90;99.90;;;;;;5053530;28;20578;-70
2022/11/20 01:43:35;;;;;;;0.10;0.10;;;4.90;99.90;;;;;;5053074;28;20194;-70
2022/11/20 01:46:15;;;;;;;0.28;0.28;;;4.90;99.90;;;;;;5051894;28;20232;-70
2022/11/20 01:48:47;;;;;;;0.20;0.20;;;4.90;99.90;;;;;;5053374;28;20180;-70
2022/11/20 01:51:31;;;;;;;1.95;0.22;;;5.00;99.90;;;;;;5052897;28;20201;-70
2022/11/20 01:54:00;;;;;;;0.00;0.00;;;5.00;99.90;;;;;;5053018;28;20608;-69
2022/11/20 01:56:28;;;;;;;0.32;0.32;;;5.10;99.90;;;;;;5053145;28;20276;-69
2022/11/20 01:58:58;;;;;;;0.00;0.00;;;5.10;99.90;;;;;;5052873;28;20170;-70
2022/11/20 02:01:24;;;;;;;0.10;0.10;;;5.10;99.90;;;;;;5052959;28;20189;-69
2022/11/20 02:03:50;;;;;;;0.40;0.30;;;5.20;99.90;;;;;;5052705;28;20189;-70
2022/11/20 02:06:35;;;;;;;0.00;0.00;;;5.20;99.90;;;;;;5052394;28;20169;-70
2022/11/20 02:09:01;;;;;;;0.20;0.20;;;5.20;99.90;;;;;;5052713;28;20601;-69
2022/11/20 02:11:27;;;;;;;0.10;0.10;;;5.20;99.90;;;;;;5052786;28;20180;-70
2022/11/20 02:13:53;;;;;;;0.00;0.00;;;5.30;99.90;;;;;;5052462;28;20274;-69
2022/11/20 02:16:33;;;;;;;0.00;0.00;;;5.30;99.90;;;;;;5052676;28;20239;-69
2022/11/20 02:19:01;;;;;;;0.00;0.00;;;5.40;99.90;;;;;;5051744;28;20280;-69
2022/11/20 02:21:30;;;;;;;0.00;0.00;;;5.40;99.90;;;;;;5052575;28;20177;-69
2022/11/20 02:24:07;;;;;;;0.00;0.00;;;5.50;99.90;;;;;;5052224;28;20205;-69
2022/11/20 02:26:58;;;;;;;0.17;0.17;;;5.50;99.90;;;;;;5052050;28;20212;-69
2022/11/20 02:29:37;;;;;;;0.05;0.05;;;5.60;99.90;;;;;;5048911;28;20535;-70
2022/11/20 02:32:03;;;;;;;0.05;0.05;;;5.60;99.90;;;;;;5052140;28;20173;-69
2022/11/20 02:34:28;;;;;;;0.03;0.03;;;5.70;99.90;;;;;;5052025;28;20185;-69
2022/11/20 02:36:55;;;;;;;0.00;0.00;;;5.70;99.90;;;;;;5052012;28;20712;-69
2022/11/20 02:39:24;;;;;;;0.00;0.00;;;5.70;99.90;;;;;;5052053;28;20231;-69
2022/11/20 02:41:53;;;;;;;0.00;0.00;;;5.80;99.90;;;;;;5052045;28;20176;-69
2022/11/20 02:44:19;;;;;;;0.10;0.10;;;5.80;99.90;;;;;;5051329;28;20240;-69
2022/11/20 02:46:45;;;;;;;0.22;0.22;;;5.90;99.90;;;;;;5051922;28;20174;-69
2022/11/20 02:49:11;;;;;;;0.00;0.00;;;5.90;99.90;;;;;;5051776;28;20188;-69
2022/11/20 02:51:36;;;;;;;0.00;0.00;;;5.90;99.90;;;;;;5051898;28;20174;-68
2022/11/20 02:54:02;;;;;;;0.20;0.20;;;6.00;99.90;;;;;;5051892;28;20179;-69
2022/11/20 02:56:27;;;;;;;0.10;0.10;;;6.00;99.90;;;;;;5051873;28;20181;-69
2022/11/20 02:58:53;;;;;;;0.00;0.00;;;6.00;99.90;;;;;;5042342;28;20236;-68
2022/11/20 03:01:19;;;;;;;0.08;0.08;;;6.00;99.90;;;;;;5037666;28;20174;-68
2022/11/20 03:03:44;;;;;;;0.35;0.32;;;6.10;99.90;;;;;;5051662;28;20715;-68
2022/11/20 03:06:10;;;;;;;0.00;0.00;;;6.10;99.90;;;;;;5049981;28;20189;-68
2022/11/20 03:08:35;;;;;;;0.00;0.00;;;6.20;99.90;;;;;;5051281;28;20221;-69
2022/11/20 03:11:06;;;;;;;0.00;0.00;;;6.20;99.90;;;;;;5051672;28;20581;-68
2022/11/20 03:13:32;;;;;;;0.00;0.00;;;6.20;99.90;;;;;;5051408;28;20225;-68
2022/11/20 03:15:58;;;;;;;0.20;0.20;;;6.20;99.90;;;;;;5051595;28;20173;-69
2022/11/20 03:18:24;;;;;;;0.00;0.00;;;6.30;99.90;;;;;;5053010;28;20234;-68
2022/11/20 03:20:49;;;;;;;0.00;0.00;;;6.20;99.90;;;;;;5055726;28;20193;-68
2022/11/20 03:23:15;;;;;;;0.90;0.40;;;6.30;99.90;;;;;;5055210;28;20170;-68
2022/11/20 03:25:40;;;;;;;0.00;0.00;;;6.30;99.90;;;;;;5055247;28;20639;-68
2022/11/20 03:28:06;;;;;;;0.05;0.05;;;6.30;99.90;;;;;;5055781;28;20708;-68
2022/11/20 03:30:31;;;;;;;0.00;0.00;;;6.30;99.90;;;;;;5055793;28;20209;-68
2022/11/20 03:32:57;;;;;;;0.00;0.00;;;6.30;99.90;;;;;;5055748;28;20177;-69
2022/11/20 03:35:22;;;;;;;0.00;0.00;;;6.40;99.90;;;;;;5055640;28;20530;-69
2022/11/20 03:37:48;;;;;;;0.00;0.00;;;6.40;99.90;;;;;;5054441;28;20177;-68
2022/11/20 03:40:13;;;;;;;0.00;0.00;;;6.40;99.90;;;;;;5055219;28;20209;-68
2022/11/20 03:42:45;;;;;;;0.10;0.10;;;6.40;99.90;;;;;;5055244;28;20188;-68
2022/11/20 03:45:13;;;;;;;0.10;0.10;;;6.40;99.90;;;;;;5053979;28;20240;-68
2022/11/20 03:47:38;;;;;;;0.10;0.10;;;6.40;99.90;;;;;;5055039;28;20165;-69
2022/11/20 03:50:04;;;;;;;0.25;0.22;;;6.40;99.90;;;;;;5054783;28;20399;-68
2022/11/20 03:52:30;;;;;;;0.05;0.05;;;6.50;99.90;;;;;;5054982;28;20186;-68
2022/11/20 03:54:55;;;;;;;0.00;0.00;;;6.50;99.90;;;;;;5055296;28;20174;-68
2022/11/20 03:57:21;;;;;;;0.10;0.10;;;6.50;99.90;;;;;;5054063;28;20673;-68
2022/11/20 03:59:46;;;;;;;0.10;0.10;;;6.50;99.90;;;;;;5055240;28;20532;-69
2022/11/20 04:02:12;;;;;;;0.00;0.00;;;6.50;99.90;;;;;;5053820;28;20633;-69
2022/11/20 04:04:37;;;;;;;0.00;0.00;;;6.50;99.90;;;;;;5055087;28;20213;-69
2022/11/20 04:07:03;;;;;;;0.00;0.00;;;6.50;99.90;;;;;;5053910;28;20188;-69
2022/11/20 04:09:28;;;;;;;0.00;0.00;;;6.50;99.90;;;;;;5056147;28;20213;-69
2022/11/20 04:11:54;;;;;;;0.30;0.30;;;6.50;99.90;;;;;;5055010;28;20637;-69
2022/11/20 04:14:20;;;;;;;0.00;0.00;;;6.50;99.90;;;;;;5054892;28;20243;-69
2022/11/20 04:16:45;;;;;;;0.00;0.00;;;6.50;99.90;;;;;;5054880;28;20211;-69
2022/11/20 04:19:16;;;;;;;0.00;0.00;;;6.50;99.90;;;;;;5055263;28;20181;-69
2022/11/20 04:21:43;;;;;;;0.00;0.00;;;6.50;99.90;;;;;;5054909;28;20172;-69
2022/11/20 04:24:10;;;;;;;0.00;0.00;;;6.50;99.90;;;;;;5054605;28;20671;-68
2022/11/20 04:26:36;;;;;;;0.00;0.00;;;6.50;99.90;;;;;;5054784;28;20182;-69
2022/11/20 04:29:02;;;;;;;0.05;0.05;;;6.50;99.90;;;;;;5054660;28;20207;-69
2022/11/20 04:31:31;;;;;;;0.00;0.00;;;6.50;99.90;;;;;;5053919;28;20184;-69
2022/11/20 04:34:00;;;;;;;0.00;0.00;;;6.50;99.90;;;;;;5054587;28;20178;-69
2022/11/20 04:36:28;;;;;;;0.00;0.00;;;6.50;99.90;;;;;;5054657;28;20166;-69
2022/11/20 04:38:56;;;;;;;0.00;0.00;;;6.50;99.90;;;;;;5054458;28;20174;-69
2022/11/20 04:41:26;;;;;;;0.05;0.05;;;6.50;99.90;;;;;;5054612;28;20166;-69
2022/11/20 04:43:58;;;;;;;0.10;0.10;;;6.50;99.90;;;;;;5054220;28;20656;-69
2022/11/20 04:46:25;;;;;;;0.00;0.00;;;6.50;99.90;;;;;;5054404;28;20545;-69
2022/11/20 04:48:51;;;;;;;0.00;0.00;;;6.50;99.90;;;;;;5054350;28;20538;-68
2022/11/20 04:51:16;;;;;;;0.00;0.00;;;6.50;99.90;;;;;;5053689;28;20280;-68
2022/11/20 04:53:42;;;;;;;0.00;0.00;;;6.50;99.90;;;;;;5052364;28;20499;-69
2022/11/20 04:56:10;;;;;;;0.10;0.10;;;6.50;99.90;;;;;;5054254;28;20213;-68
2022/11/20 04:58:36;;;;;;;0.38;0.35;;;6.50;99.90;;;;;;5054067;28;20541;-69
2022/11/20 05:01:07;;;;;;;0.03;0.03;;;6.60;99.90;;;;;;5053243;28;20264;-69
2022/11/20 05:03:33;;;;;;;0.00;0.00;;;6.60;99.90;;;;;;5053719;28;20699;-69
2022/11/20 05:06:03;;;;;;;0.00;0.00;;;6.60;99.90;;;;;;5053932;28;20189;-69
2022/11/20 05:08:30;;;;;;;0.13;0.13;;;6.60;99.90;;;;;;5054036;28;20177;-69
2022/11/20 05:11:10;;;;;;;0.08;0.08;;;6.60;99.90;;;;;;5053789;28;20196;-69
2022/11/20 05:13:36;;;;;;;0.00;0.00;;;6.60;99.90;;;;;;5053815;28;20300;-68
2022/11/20 05:16:13;;;;;;;0.00;0.00;;;6.60;99.90;;;;;;5053787;28;20261;-68
2022/11/20 05:18:39;;;;;;;0.10;0.10;;;6.60;99.90;;;;;;5053911;28;20263;-68
2022/11/20 05:21:05;;;;;;;0.00;0.00;;;6.60;99.90;;;;;;5053636;28;20654;-68
2022/11/20 05:23:32;;;;;;;0.00;0.00;;;6.60;99.90;;;;;;5053629;28;20191;-69
2022/11/20 05:25:58;;;;;;;0.00;0.00;;;6.70;99.90;;;;;;5053558;28;20185;-69
2022/11/20 05:28:25;;;;;;;0.00;0.00;;;6.60;99.90;;;;;;5053663;28;20523;-69
2022/11/20 05:30:51;;;;;;;0.00;0.00;;;6.70;99.90;;;;;;5053526;28;20250;-69
2022/11/20 05:33:17;;;;;;;0.00;0.00;;;6.70;99.90;;;;;;5053728;28;20169;-69
2022/11/20 05:35:42;;;;;;;0.00;0.00;;;6.70;99.90;;;;;;5053825;28;20174;-69
2022/11/20 05:38:08;;;;;;;0.10;0.10;;;6.70;99.90;;;;;;5053305;28;20224;-69
2022/11/20 05:40:33;;;;;;;0.00;0.00;;;6.70;99.90;;;;;;5053413;28;20205;-69
2022/11/20 05:43:00;;;;;;;0.00;0.00;;;6.70;99.90;;;;;;5053236;28;20266;-69
2022/11/20 05:45:25;;;;;;;0.00;0.00;;;6.70;99.90;;;;;;5053153;28;20216;-69
2022/11/20 05:47:51;;;;;;;0.00;0.00;;;6.70;99.90;;;;;;5053223;28;20173;-68
2022/11/20 05:50:16;;;;;;;0.25;0.25;;;6.70;99.90;;;;;;5053247;28;20256;-68
2022/11/20 05:52:42;;;;;;;0.00;0.00;;;6.70;99.90;;;;;;5051991;28;20177;-69
2022/11/20 05:55:08;;;;;;;0.00;0.00;;;6.70;99.90;;;;;;5053036;28;20260;-69
2022/11/20 05:57:33;;;;;;;0.00;0.00;;;6.70;99.90;;;;;;5053002;28;20197;-68
2022/11/20 05:59:59;;;;;;;0.00;0.00;;;6.70;99.90;;;;;;5051616;28;20235;-69
2022/11/20 06:02:25;;;;;;;0.00;0.00;;;6.70;99.90;;;;;;5052729;28;20247;-69
2022/11/20 06:04:50;;;;;;;0.00;0.00;;;6.70;99.90;;;;;;5052367;28;20221;-69
2022/11/20 06:07:16;;;;;;;0.00;0.00;;;6.70;99.90;;;;;;5051992;28;20185;-68
2022/11/20 06:09:41;;;;;;;0.00;0.00;;;6.70;99.90;;;;;;5052416;28;20205;-68
2022/11/20 06:12:07;;;;;;;0.00;0.00;;;6.70;99.90;;;;;;5052164;28;20177;-69
2022/11/20 06:14:33;;;;;;;0.00;0.00;;;6.70;99.90;;;;;;5052624;28;20231;-69
2022/11/20 06:16:58;;;;;;;0.08;0.08;;;6.70;99.90;;;;;;5052659;28;20178;-69
2022/11/20 06:19:24;;;;;;;0.00;0.00;;;6.80;99.90;;;;;;5052686;28;20181;-69
2022/11/20 06:21:49;;;;;;;0.00;0.00;;;6.80;99.90;;;;;;5052710;28;20208;-69
2022/11/20 06:24:15;;;;;;;0.00;0.00;;;6.80;99.90;;;;;;5052669;28;20213;-68
2022/11/20 06:26:41;;;;;;;0.00;0.00;;;6.80;99.90;;;;;;5052537;28;20252;-68
2022/11/20 06:29:07;;;;;;;0.03;0.03;;;6.80;99.90;;;;;;5052575;28;20182;-69
2022/11/20 06:31:34;;;;;;;0.15;0.15;;;6.80;99.90;;;;;;5052381;28;20177;-69
2022/11/20 06:34:00;;;;;;;0.00;0.00;;;6.80;99.90;;;;;;5052331;28;20272;-68
2022/11/20 06:36:26;;;;;;;0.00;0.00;;;6.80;99.90;;;;;;5052443;28;20535;-68
2022/11/20 06:38:51;;;;;;;0.00;0.00;;;6.80;99.90;;;;;;5052285;28;20177;-68
2022/11/20 06:41:20;;;;;;;0.00;0.00;;;6.80;99.90;;;;;;5052253;28;20181;-68
2022/11/20 06:43:46;;;;;;;0.17;0.17;;;6.70;99.90;;;;;;5052203;28;20235;-68
2022/11/20 06:46:13;;;;;;;0.00;0.00;;;6.70;99.90;;;;;;5052188;28;20181;-69
2022/11/20 06:48:39;;;;;;;0.00;0.00;;;6.70;99.90;;;;;;5052122;28;20625;-68
2022/11/20 06:51:06;;;;;;;0.00;0.00;;;6.70;99.90;;;;;;5052128;28;20177;-68
2022/11/20 06:53:31;;;;;;;0.00;0.00;;;6.60;99.90;;;;;;5051781;28;20169;-69
2022/11/20 06:55:57;;;;;;;0.00;0.00;;;6.60;99.90;;;;;;5052084;28;20180;-68
2022/11/20 06:58:25;;;;;;;0.00;0.00;;;6.50;99.90;;;;;;5052163;28;20268;-69
2022/11/20 07:00:51;;;;;;;0.10;0.10;;;6.50;99.90;;;;;;5052050;28;20177;-69
2022/11/20 07:03:16;;;;;;;0.00;0.00;;;6.50;99.90;;;;;;5052009;28;20170;-69
2022/11/20 07:05:42;;;;;;;0.00;0.00;;;6.50;99.90;;;;;;5051972;28;20213;-69
2022/11/20 07:08:09;;;;;;;0.00;0.00;;;6.50;99.90;;;;;;5051767;28;20617;-69
2022/11/20 07:10:35;;;;;;;0.10;0.10;;;6.50;99.90;;;;;;5051243;28;20208;-69
2022/11/20 07:13:00;;;;;;;0.00;0.00;;;6.50;99.90;;;;;;5051505;28;20558;-69
2022/11/20 07:15:26;;;;;;;0.00;0.00;;;6.50;99.90;;;;;;5051053;28;20188;-69
2022/11/20 07:17:52;;;;;;;0.20;0.20;;;6.50;99.90;;;;;;5052878;28;20174;-69
2022/11/20 07:20:17;;;;;;;0.00;0.00;;;6.50;99.90;;;;;;5057527;28;20189;-69
2022/11/20 07:22:43;;;;;;;0.00;0.00;;;6.50;99.90;;;;;;5052280;28;20209;-68
2022/11/20 07:25:09;;;;;;;0.00;0.00;;;6.50;99.90;;;;;;5051397;28;20219;-69
2022/11/20 07:27:35;;;;;;;0.00;0.00;;;6.60;99.90;;;;;;5051333;28;20177;-69
2022/11/20 07:30:02;;;;;;;0.00;0.00;;;6.60;99.90;;;;;;5051487;28;20644;-68
2022/11/20 07:32:27;;;;;;;0.00;0.00;;;6.60;99.90;;;;;;5051716;28;20169;-68
2022/11/20 07:34:52;;;;;;;0.00;0.00;;;6.60;99.90;;;;;;5051495;28;20355;-69
2022/11/20 07:37:18;;;;;;;0.00;0.00;;;6.60;99.90;;;;;;5049933;28;20514;-69
2022/11/20 07:39:44;;;;;;;0.00;0.00;;;6.70;99.90;;;;;;5051686;28;20178;-68
2022/11/20 07:42:11;;;;;;;0.00;0.00;;;6.70;99.90;;;;;;5051597;28;20232;-68
2022/11/20 07:44:37;;;;;;;0.03;0.03;;;6.70;99.90;;;;;;5051402;28;20205;-68
2022/11/20 07:47:03;;;;;;;0.00;0.00;;;6.70;99.90;;;;;;5051763;28;20200;-68
2022/11/20 07:49:29;;;;;;;0.00;0.00;;;6.60;99.90;;;;;;5051412;28;20189;-68
2022/11/20 07:51:54;;;;;;;0.00;0.00;;;6.60;99.90;;;;;;5049993;28;20349;-68
2022/11/20 07:54:20;;;;;;;0.00;0.00;;;6.60;99.90;;;;;;5051500;28;20173;-68
2022/11/20 07:56:47;;;;;;;0.00;0.00;;;6.60;99.90;;;;;;5051215;28;20185;-67
2022/11/20 07:59:13;;;;;;;0.00;0.00;;;6.60;99.90;;;;;;5051172;28;20181;-67
2022/11/20 08:01:42;;;;;;;0.00;0.00;;;6.60;99.90;;;;;;5051885;28;20180;-68
2022/11/20 08:04:09;;;;;;;0.00;0.00;;;6.60;99.90;;;;;;5051097;28;20194;-68
2022/11/20 08:06:35;;;;;;;0.00;0.00;;;6.60;99.90;;;;;;5054309;28;20196;-68
2022/11/20 08:09:00;;;;;;;0.43;0.43;;;6.50;99.90;;;;;;5055018;28;20185;-68
2022/11/20 08:14:13;;;;;;;0.00;0.00;;;6.60;99.90;;;;;;5054978;28;20260;-68
2022/11/20 08:16:43;;;;;;;0.00;0.00;;;6.60;99.90;;;;;;5054887;28;20178;-68
2022/11/20 08:19:09;;;;;;;0.00;0.00;;;6.60;99.90;;;;;;5054861;28;20820;-68
2022/11/20 08:21:35;;;;;;;0.20;0.20;;;6.60;99.90;;;;;;5054988;28;20252;-68
2022/11/20 08:24:00;;;;;;;0.00;0.00;;;6.60;99.90;;;;;;5054477;28;20225;-67
2022/11/20 08:26:26;;;;;;;0.00;0.00;;;6.60;99.90;;;;;;5054306;28;20178;-69
2022/11/20 08:28:56;;;;;;;0.00;0.00;;;6.70;99.90;;;;;;5054441;28;20182;-69
2022/11/20 08:31:22;;;;;;;0.10;0.10;;;6.70;99.90;;;;;;5054784;28;20201;-69
2022/11/20 08:33:48;;;;;;;0.00;0.00;;;6.70;99.90;;;;;;5054366;28;20227;-67
2022/11/20 08:36:14;;;;;;;0.05;0.05;;;6.70;99.90;;;;;;5054466;28;20189;-67
2022/11/20 08:38:40;;;;;;;0.10;0.10;;;6.70;99.90;;;;;;5055445;28;20253;-68
2022/11/20 08:41:23;;;;;;;0.00;0.00;;;6.70;99.90;;;;;;5060467;28;20235;-67
2022/11/20 08:44:09;;;;;;;0.00;0.00;;;6.70;99.90;;;;;;5062263;28;20253;-67
2022/11/20 08:46:40;;;;;;;0.00;0.00;;;6.70;99.90;;;;;;5052874;28;20189;-66
2022/11/20 08:49:08;;;;;;;0.00;0.00;;;6.70;99.90;;;;;;5054398;28;20197;-66
2022/11/20 08:51:35;;;;;;;0.00;0.00;;;6.70;99.90;;;;;;5054013;28;20240;-72
2022/11/20 08:54:01;;;;;;;0.00;0.00;;;6.70;99.90;;;;;;5051946;28;20184;-71
2022/11/20 08:56:26;;;;;;;0.00;0.00;;;6.70;99.90;;;;;;5053861;28;20190;-67
2022/11/20 08:58:52;;;;;;;0.00;0.00;;;6.70;99.90;;;;;;5053702;28;20762;-70
2022/11/20 09:01:19;;;;;;;0.08;0.08;;;6.70;99.90;;;;;;5053270;28;20529;-69
2022/11/20 09:03:45;;;;;;;0.00;0.00;;;6.70;99.90;;;;;;5053812;28;20205;-70
2022/11/20 09:06:11;;;;;;;0.00;0.00;;;6.80;99.90;;;;;;5053837;28;20598;-67
2022/11/20 09:08:36;;;;;;;0.00;0.00;;;6.80;99.90;;;;;;5053814;28;20178;-64
2022/11/20 09:11:03;;;;;;;0.22;0.08;;;6.90;99.90;;;;;;5053820;28;20189;-67
2022/11/20 09:13:29;;;;;;;0.17;0.17;;;7.00;99.90;;;;;;5053687;28;20221;-68
2022/11/20 09:16:01;;;;;;;0.00;0.00;;;7.00;99.90;;;;;;5053561;28;20174;-67
2022/11/20 09:18:28;;;;;;;0.00;0.00;;;7.00;99.90;;;;;;5053712;28;20174;-68
2022/11/20 09:21:01;;;;;;;0.00;0.00;;;7.10;99.90;;;;;;5053423;28;20220;-70
2022/11/20 09:23:30;;;;;;;0.00;0.00;;;7.10;99.90;;;;;;5050516;28;20181;-69
2022/11/20 09:25:59;;;;;;;0.00;0.00;;;7.10;99.90;;;;;;5053511;28;20200;-69
2022/11/20 09:28:25;;;;;;;0.00;0.00;;;7.20;99.90;;;;;;5053683;28;20177;-70
2022/11/20 09:30:50;;;;;;;0.00;0.00;;;7.20;99.90;;;;;;5052314;28;20595;-69
2022/11/20 09:33:16;;;;;;;0.10;0.10;;;7.20;99.90;;;;;;5053563;28;20181;-69
2022/11/20 09:35:43;;;;;;;0.00;0.00;;;7.20;99.90;;;;;;5053604;28;20173;-69
2022/11/20 09:38:10;;;;;;;0.00;0.00;;;7.20;99.90;;;;;;5053482;28;20184;-68
2022/11/20 09:40:43;;;;;;;0.00;0.00;;;7.20;99.90;;;;;;5053339;28;20682;-69
2022/11/20 09:43:27;;;;;;;0.00;0.00;;;7.20;99.90;;;;;;5053320;28;20645;-69
2022/11/20 09:46:10;;;;;;;0.00;0.00;;;7.30;99.90;;;;;;5052921;28;20174;-69
2022/11/20 09:49:20;;;;;;;0.00;0.00;;;7.30;99.90;;;;;;5053387;28;20223;-69
2022/11/20 09:51:56;;;;;;;0.00;0.00;;;7.40;99.90;;;;;;5053104;28;20177;-69
2022/11/20 09:54:36;;;;;;;0.00;0.00;;;7.40;99.90;;;;;;5053225;28;20220;-69
2022/11/20 09:57:08;;;;;;;0.00;0.00;;;7.40;99.90;;;;;;5053165;28;20648;-69
2022/11/20 09:59:40;;;;;;;0.00;0.00;;;7.50;99.90;;;;;;5053149;28;20183;-69
2022/11/20 10:02:26;;;;;;;0.00;0.00;;;7.50;99.90;;;;;;5052946;28;20208;-69
2022/11/20 10:05:04;;;;;;;0.00;0.00;;;7.60;99.90;;;;;;5050973;28;20758;-69
2022/11/20 10:07:38;;;;;;;0.00;0.00;;;7.70;99.90;;;;;;5051579;28;20651;-68
2022/11/20 10:10:04;;;;;;;0.00;0.00;;;7.80;99.90;;;;;;5051560;28;20184;-71
2022/11/20 10:13:08;;;;;;;0.00;0.00;;;7.80;99.90;;;;;;5052673;28;20263;-69
2022/11/20 10:15:52;;;;;;;0.00;0.00;;;7.80;99.90;;;;;;5052669;28;20227;-71
2022/11/20 10:18:41;;;;;;;0.10;0.10;;;7.80;99.90;;;;;;5052587;28;20264;-71
2022/11/20 10:21:21;;;;;;;0.00;0.00;;;7.80;99.90;;;;;;5050672;28;20260;-72
2022/11/20 10:24:12;;;;;;;0.00;0.00;;;7.80;99.90;;;;;;5051150;28;20268;-72
2022/11/20 10:26:58;;;;;;;0.00;0.00;;;7.80;99.90;;;;;;5045770;28;20212;-71
2022/11/20 10:29:33;;;;;;;0.00;0.00;;;7.80;99.90;;;;;;5050305;28;20517;-70
2022/11/20 10:32:04;;;;;;;0.00;0.00;;;7.70;99.90;;;;;;5052213;28;20531;-72
2022/11/20 10:34:49;;;;;;;0.00;0.00;;;7.60;99.90;;;;;;5051271;28;20243;-71
2022/11/20 10:37:31;;;;;;;0.00;0.00;;;7.60;99.90;;;;;;5052028;28;20518;-72
2022/11/20 10:40:11;;;;;;;0.13;0.13;;;7.60;99.90;;;;;;5052278;28;20455;-71
2022/11/20 10:42:44;;;;;;;0.13;0.13;;;7.60;99.90;;;;;;5052178;28;20248;-71
2022/11/20 10:45:26;;;;;;;0.65;0.30;;;7.60;99.90;;;;;;5052266;28;20209;-71
2022/11/20 10:48:07;;;;;;;0.00;0.00;;;7.50;99.90;;;;;;5051131;28;20173;-71
2022/11/20 10:50:37;;;;;;;0.00;0.00;;;7.50;99.90;;;;;;5051254;28;20177;-72
2022/11/20 10:53:31;;;;;;;0.10;0.10;;;7.50;99.90;;;;;;5055465;28;20272;-71
2022/11/20 10:56:04;;;;;;;0.00;0.00;;;7.50;99.90;;;;;;5057209;28;20256;-71
2022/11/20 10:59:03;;;;;;;0.10;0.10;;;7.40;99.90;;;;;;5053358;28;20181;-71
2022/11/20 11:01:28;;;;;;;0.03;0.03;;;7.40;99.90;;;;;;5052409;28;20177;-72
2022/11/20 11:03:55;;;;;;;0.00;0.00;;;7.40;99.90;;;;;;5051925;28;20201;-71
2022/11/20 11:06:31;;;;;;;0.00;0.00;;;7.40;99.90;;;;;;5052331;28;20264;-72
2022/11/20 11:09:03;;;;;;;0.00;0.00;;;7.40;99.90;;;;;;5051896;28;20173;-71
2022/11/20 11:11:33;;;;;;;0.00;0.00;;;7.50;99.90;;;;;;5050200;28;20312;-72
2022/11/20 11:14:12;;;;;;;0.00;0.00;;;7.50;99.90;;;;;;5051684;28;20249;-71
2022/11/20 11:16:55;;;;;;;0.03;0.03;;;7.60;99.90;;;;;;5051789;28;20173;-72
2022/11/20 11:19:22;;;;;;;0.00;0.00;;;7.70;99.90;;;;;;5051700;28;20177;-71
2022/11/20 11:21:54;;;;;;;0.00;0.00;;;7.80;99.90;;;;;;5051443;28;20180;-71
2022/11/20 11:24:28;;;;;;;0.00;0.00;;;7.90;99.90;;;;;;5047834;28;20351;-71
2022/11/20 11:27:06;;;;;;;0.15;0.15;;;7.90;99.90;;;;;;5049994;28;20185;-72
2022/11/20 11:29:33;;;;;;;0.00;0.00;;;8.00;99.90;;;;;;5051470;28;20181;-74
2022/11/20 11:32:17;;;;;;;0.00;0.00;;;8.00;99.90;;;;;;5051264;28;20182;-72
2022/11/20 11:34:43;;;;;;;0.00;0.00;;;8.10;99.90;;;;;;5051705;28;20256;-68
2022/11/20 11:37:24;;;;;;;0.00;0.00;;;8.20;99.90;;;;;;5051902;28;20181;-73
2022/11/20 11:39:49;;;;;;;0.00;0.00;;;8.30;99.90;;;;;;5053769;28;20559;-71
2022/11/20 11:42:19;;;;;;;0.10;0.10;;;8.50;99.90;;;;;;5055636;28;20625;-73
2022/11/20 11:45:05;;;;;;;0.00;0.00;;;8.50;99.90;;;;;;5054338;28;20723;-69
2022/11/20 11:47:35;;;;;;;0.00;0.00;;;8.60;99.90;;;;;;5055680;28;20181;-70
2022/11/20 11:50:13;;;;;;;0.17;0.17;;;8.70;99.90;;;;;;5055462;28;20201;-70
2022/11/20 11:52:51;;;;;;;0.00;0.00;;;8.70;99.90;;;;;;5054358;28;20228;-71
2022/11/20 11:55:37;;;;;;;0.30;0.25;;;8.70;99.90;;;;;;5055292;28;20176;-69
2022/11/20 11:58:20;;;;;;;0.63;0.52;;;8.70;99.90;;;;;;5056275;28;20204;-70
2022/11/20 12:00:57;;;;;;;0.10;0.10;;;8.60;99.90;;;;;;5064323;28;20201;-69
2022/11/20 12:03:35;;;;;;;0.00;0.00;;;8.60;99.90;;;;;;5055440;28;20181;-71
2022/11/20 12:06:09;;;;;;;0.00;0.00;;;8.60;99.90;;;;;;5053587;28;20587;-71
2022/11/20 12:08:49;;;;;;;0.00;0.00;;;8.80;99.90;;;;;;5055028;28;20174;-71
2022/11/20 12:11:38;;;;;;;0.00;0.00;;;9.00;99.90;;;;;;5053837;28;20208;-71
2022/11/20 12:14:23;;;;;;;0.00;0.00;;;9.10;99.90;;;;;;5054886;28;20237;-70
2022/11/20 12:16:53;;;;;;;0.20;0.20;;;9.10;99.90;;;;;;5055342;28;20236;-70
2022/11/20 12:19:18;;;;;;;0.03;0.03;;;9.00;99.90;;;;;;5055026;28;20209;-70
2022/11/20 12:22:17;;;;;;;0.00;0.00;;;8.90;99.90;;;;;;5054915;28;20222;-70
2022/11/20 12:25:10;;;;;;;0.00;0.00;;;8.80;99.90;;;;;;5054925;28;20220;-70
2022/11/20 12:27:44;;;;;;;0.00;0.00;;;8.80;99.90;;;;;;5049981;28;20177;-70
2022/11/20 12:30:13;;;;;;;0.00;0.00;;;8.70;99.90;;;;;;5054973;28;20174;-71
2022/11/20 12:32:42;;;;;;;0.05;0.05;;;8.70;99.90;;;;;;5054344;28;20205;-70
2022/11/20 12:35:26;;;;;;;0.20;0.20;;;8.80;99.90;;;;;;5053766;28;20793;-71
2022/11/20 12:38:02;;;;;;;0.00;0.00;;;8.80;99.90;;;;;;5054709;28;20176;-71
2022/11/20 12:40:47;;;;;;;0.00;0.00;;;9.00;99.90;;;;;;5054772;28;20181;-71
2022/11/20 12:46:46;;;;;;;0.05;0.05;;;9.50;99.90;;;;;;5054540;28;20188;-70
2022/11/20 12:49:12;;;;;;;0.00;0.00;;;9.60;99.90;;;;;;5032345;28;20289;-71
2022/11/20 12:52:02;;;;;;;0.00;0.00;;;9.60;99.90;;;;;;5049556;28;20695;-70
2022/11/20 12:54:34;;;;;;;0.85;0.30;;;9.50;99.90;;;;;;5054563;28;20178;-70
2022/11/20 12:57:18;;;;;;;0.13;0.13;;;9.50;99.90;;;;;;5054504;28;20209;-70
2022/11/20 13:00:09;;;;;;;0.17;0.15;;;9.50;99.90;;;;;;5053349;28;20280;-70
2022/11/20 13:03:09;;;;;;;0.00;0.00;;;9.50;99.90;;;;;;5054224;28;20544;-69
2022/11/20 13:06:04;;;;;;;0.00;0.00;;;9.40;99.90;;;;;;5054069;28;20300;-69
2022/11/20 13:08:36;;;;;;;0.73;0.52;;;9.30;99.90;;;;;;5054169;28;20349;-69
2022/11/20 13:11:26;;;;;;;0.00;0.00;;;9.20;99.90;;;;;;5053994;28;20217;-69
2022/11/20 13:14:18;;;;;;;0.00;0.00;;;9.10;99.90;;;;;;5053805;28;20247;-69
2022/11/20 13:17:21;;;;;;;0.10;0.10;;;9.00;99.90;;;;;;5053983;28;20184;-69
2022/11/20 13:19:54;;;;;;;0.00;0.00;;;8.90;99.90;;;;;;5052075;28;20185;-70
2022/11/20 13:22:42;;;;;;;0.00;0.00;;;8.80;99.90;;;;;;5054080;28;20557;-69